sensor_id;sensor_type;location;lat;lon;timestamp;P1;durP1;ratioP1;P2;durP2;ratioP2
38457;SDS011;24239;48.058;10.486;2022-09-09T00:04:43;3.45;;;2.50;;
38457;SDS011;24239;48.058;10.486;2022-09-09T00:10:29;3.65;;;2.40;;
38457;SDS011;24239;48.058;10.486;2022-09-09T00:13:25;3.67;;;2.40;;
38457;SDS011;24239;48.058;10.486;2022-09-09T00:21:35;5.07;;;2.95;;
38457;SDS011;24239;48.058;10.486;2022-09-09T00:24:24;3.88;;;2.72;;
38457;SDS011;24239;48.058;10.486;2022-09-09T00:26:51;8.02;;;3.40;;
38457;SDS011;24239;48.058;10.486;2022-09-09T00:32:00;7.72;;;3.38;;
38457;SDS011;24239;48.058;10.486;2022-09-09T00:34:36;6.00;;;2.88;;
38457;SDS011;24239;48.058;10.486;2022-09-09T00:37:08;5.10;;;2.60;;
38457;SDS011;24239;48.058;10.486;2022-09-09T00:39:45;4.35;;;2.90;;
38457;SDS011;24239;48.058;10.486;2022-09-09T00:45:01;6.07;;;3.17;;
38457;SDS011;24239;48.058;10.486;2022-09-09T00:55:56;8.75;;;2.42;;
38457;SDS011;24239;48.058;10.486;2022-09-09T00:58:37;8.73;;;2.70;;
38457;SDS011;24239;48.058;10.486;2022-09-09T01:20:08;3.72;;;2.80;;
38457;SDS011;24239;48.058;10.486;2022-09-09T01:22:50;3.72;;;2.25;;
38457;SDS011;24239;48.058;10.486;2022-09-09T01:28:46;8.98;;;2.85;;
38457;SDS011;24239;48.058;10.486;2022-09-09T01:31:18;7.25;;;2.45;;
38457;SDS011;24239;48.058;10.486;2022-09-09T01:33:51;4.93;;;2.80;;
38457;SDS011;24239;48.058;10.486;2022-09-09T01:36:38;3.00;;;2.63;;
38457;SDS011;24239;48.058;10.486;2022-09-09T01:39:16;6.28;;;2.80;;
38457;SDS011;24239;48.058;10.486;2022-09-09T01:41:42;3.72;;;2.50;;
38457;SDS011;24239;48.058;10.486;2022-09-09T01:44:08;2.92;;;2.47;;
38457;SDS011;24239;48.058;10.486;2022-09-09T01:46:35;4.40;;;2.30;;
38457;SDS011;24239;48.058;10.486;2022-09-09T01:49:02;2.42;;;2.20;;
38457;SDS011;24239;48.058;10.486;2022-09-09T01:51:33;6.45;;;2.90;;
38457;SDS011;24239;48.058;10.486;2022-09-09T01:54:00;6.40;;;2.80;;
38457;SDS011;24239;48.058;10.486;2022-09-09T01:56:31;6.18;;;2.70;;
38457;SDS011;24239;48.058;10.486;2022-09-09T02:04:54;2.83;;;2.53;;
38457;SDS011;24239;48.058;10.486;2022-09-09T02:10:15;6.30;;;3.15;;
38457;SDS011;24239;48.058;10.486;2022-09-09T02:12:45;4.25;;;2.70;;
38457;SDS011;24239;48.058;10.486;2022-09-09T02:15:17;5.43;;;3.05;;
38457;SDS011;24239;48.058;10.486;2022-09-09T02:17:57;4.18;;;2.45;;
38457;SDS011;24239;48.058;10.486;2022-09-09T02:20:26;4.75;;;2.80;;
38457;SDS011;24239;48.058;10.486;2022-09-09T02:22:55;6.43;;;2.75;;
38457;SDS011;24239;48.058;10.486;2022-09-09T02:25:23;3.03;;;2.72;;
38457;SDS011;24239;48.058;10.486;2022-09-09T02:27:51;4.22;;;3.00;;
38457;SDS011;24239;48.058;10.486;2022-09-09T02:30:17;4.18;;;2.70;;
38457;SDS011;24239;48.058;10.486;2022-09-09T02:32:45;4.38;;;2.70;;
38457;SDS011;24239;48.058;10.486;2022-09-09T02:35:15;6.45;;;2.83;;
38457;SDS011;24239;48.058;10.486;2022-09-09T02:37:45;5.72;;;3.28;;
38457;SDS011;24239;48.058;10.486;2022-09-09T02:40:15;6.85;;;2.90;;
38457;SDS011;24239;48.058;10.486;2022-09-09T02:42:45;8.30;;;3.10;;
38457;SDS011;24239;48.058;10.486;2022-09-09T02:50:16;5.60;;;3.35;;
38457;SDS011;24239;48.058;10.486;2022-09-09T02:58:09;6.85;;;3.25;;
38457;SDS011;24239;48.058;10.486;2022-09-09T03:00:37;4.53;;;3.40;;
38457;SDS011;24239;48.058;10.486;2022-09-09T03:03:05;6.10;;;3.08;;
38457;SDS011;24239;48.058;10.486;2022-09-09T03:05:34;4.10;;;2.83;;
38457;SDS011;24239;48.058;10.486;2022-09-09T03:08:01;5.20;;;3.05;;
38457;SDS011;24239;48.058;10.486;2022-09-09T03:10:27;3.30;;;3.00;;
38457;SDS011;24239;48.058;10.486;2022-09-09T03:12:53;5.13;;;3.10;;
38457;SDS011;24239;48.058;10.486;2022-09-09T03:15:20;8.73;;;3.47;;
38457;SDS011;24239;48.058;10.486;2022-09-09T03:17:46;5.43;;;3.00;;
38457;SDS011;24239;48.058;10.486;2022-09-09T03:20:12;4.60;;;3.00;;
38457;SDS011;24239;48.058;10.486;2022-09-09T03:22:38;4.88;;;3.05;;
38457;SDS011;24239;48.058;10.486;2022-09-09T03:25:04;4.72;;;3.30;;
38457;SDS011;24239;48.058;10.486;2022-09-09T03:27:31;4.10;;;3.40;;
38457;SDS011;24239;48.058;10.486;2022-09-09T03:29:57;3.55;;;2.92;;
38457;SDS011;24239;48.058;10.486;2022-09-09T03:32:23;9.45;;;3.20;;
38457;SDS011;24239;48.058;10.486;2022-09-09T03:34:51;6.45;;;3.38;;
38457;SDS011;24239;48.058;10.486;2022-09-09T03:37:17;4.38;;;2.90;;
38457;SDS011;24239;48.058;10.486;2022-09-09T03:39:48;5.25;;;3.08;;
38457;SDS011;24239;48.058;10.486;2022-09-09T03:42:14;3.70;;;2.90;;
38457;SDS011;24239;48.058;10.486;2022-09-09T03:44:44;5.28;;;3.30;;
38457;SDS011;24239;48.058;10.486;2022-09-09T03:47:17;5.28;;;3.05;;
38457;SDS011;24239;48.058;10.486;2022-09-09T03:49:44;5.53;;;2.65;;
38457;SDS011;24239;48.058;10.486;2022-09-09T03:52:10;5.57;;;3.05;;
38457;SDS011;24239;48.058;10.486;2022-09-09T03:54:37;5.35;;;2.90;;
38457;SDS011;24239;48.058;10.486;2022-09-09T03:57:03;6.03;;;2.90;;
38457;SDS011;24239;48.058;10.486;2022-09-09T03:59:29;6.90;;;3.33;;
38457;SDS011;24239;48.058;10.486;2022-09-09T04:01:55;6.03;;;3.40;;
38457;SDS011;24239;48.058;10.486;2022-09-09T04:04:22;4.30;;;2.60;;
38457;SDS011;24239;48.058;10.486;2022-09-09T04:06:48;6.07;;;3.17;;
38457;SDS011;24239;48.058;10.486;2022-09-09T04:09:14;4.25;;;2.83;;
38457;SDS011;24239;48.058;10.486;2022-09-09T04:11:40;5.68;;;3.05;;
38457;SDS011;24239;48.058;10.486;2022-09-09T04:14:06;3.63;;;2.80;;
38457;SDS011;24239;48.058;10.486;2022-09-09T04:16:32;5.25;;;3.10;;
38457;SDS011;24239;48.058;10.486;2022-09-09T04:18:58;5.22;;;2.90;;
38457;SDS011;24239;48.058;10.486;2022-09-09T04:21:25;4.57;;;2.78;;
38457;SDS011;24239;48.058;10.486;2022-09-09T04:23:53;4.88;;;2.30;;
38457;SDS011;24239;48.058;10.486;2022-09-09T04:26:19;2.72;;;2.40;;
38457;SDS011;24239;48.058;10.486;2022-09-09T04:28:45;5.20;;;2.67;;
38457;SDS011;24239;48.058;10.486;2022-09-09T04:31:21;5.85;;;2.75;;
38457;SDS011;24239;48.058;10.486;2022-09-09T04:33:49;3.90;;;2.80;;
38457;SDS011;24239;48.058;10.486;2022-09-09T04:36:15;7.70;;;2.55;;
38457;SDS011;24239;48.058;10.486;2022-09-09T04:38:43;3.72;;;2.60;;
38457;SDS011;24239;48.058;10.486;2022-09-09T04:41:09;4.88;;;2.95;;
38457;SDS011;24239;48.058;10.486;2022-09-09T04:43:36;5.60;;;2.83;;
38457;SDS011;24239;48.058;10.486;2022-09-09T04:46:03;6.18;;;2.88;;
38457;SDS011;24239;48.058;10.486;2022-09-09T04:48:29;5.57;;;2.42;;
38457;SDS011;24239;48.058;10.486;2022-09-09T04:51:00;6.47;;;3.17;;
38457;SDS011;24239;48.058;10.486;2022-09-09T04:53:29;6.28;;;2.72;;
38457;SDS011;24239;48.058;10.486;2022-09-09T04:56:05;5.15;;;2.70;;
38457;SDS011;24239;48.058;10.486;2022-09-09T04:58:39;3.78;;;2.33;;
38457;SDS011;24239;48.058;10.486;2022-09-09T05:01:12;4.32;;;2.25;;
38457;SDS011;24239;48.058;10.486;2022-09-09T05:03:41;5.03;;;2.53;;
38457;SDS011;24239;48.058;10.486;2022-09-09T05:06:10;4.65;;;2.40;;
38457;SDS011;24239;48.058;10.486;2022-09-09T05:08:40;6.82;;;2.70;;
38457;SDS011;24239;48.058;10.486;2022-09-09T05:11:40;7.05;;;2.65;;
38457;SDS011;24239;48.058;10.486;2022-09-09T05:14:01;3.25;;;2.30;;
38457;SDS011;24239;48.058;10.486;2022-09-09T05:16:26;7.22;;;2.40;;
38457;SDS011;24239;48.058;10.486;2022-09-09T05:18:52;3.03;;;2.10;;
38457;SDS011;24239;48.058;10.486;2022-09-09T05:21:19;6.05;;;2.25;;
38457;SDS011;24239;48.058;10.486;2022-09-09T05:23:46;7.10;;;2.63;;
38457;SDS011;24239;48.058;10.486;2022-09-09T05:26:13;2.88;;;1.92;;
38457;SDS011;24239;48.058;10.486;2022-09-09T05:28:43;5.45;;;1.92;;
38457;SDS011;24239;48.058;10.486;2022-09-09T05:31:10;3.42;;;1.65;;
38457;SDS011;24239;48.058;10.486;2022-09-09T05:33:38;3.95;;;1.98;;
38457;SDS011;24239;48.058;10.486;2022-09-09T05:36:10;2.78;;;1.60;;
38457;SDS011;24239;48.058;10.486;2022-09-09T05:38:38;2.25;;;1.58;;
38457;SDS011;24239;48.058;10.486;2022-09-09T05:41:05;2.45;;;1.70;;
38457;SDS011;24239;48.058;10.486;2022-09-09T05:43:32;2.83;;;1.70;;
38457;SDS011;24239;48.058;10.486;2022-09-09T05:48:30;3.13;;;1.73;;
38457;SDS011;24239;48.058;10.486;2022-09-09T05:50:57;5.60;;;2.00;;
38457;SDS011;24239;48.058;10.486;2022-09-09T05:53:24;4.22;;;2.38;;
38457;SDS011;24239;48.058;10.486;2022-09-09T05:55:57;4.60;;;2.30;;
38457;SDS011;24239;48.058;10.486;2022-09-09T05:58:31;4.72;;;2.25;;
38457;SDS011;24239;48.058;10.486;2022-09-09T06:01:16;3.40;;;2.00;;
38457;SDS011;24239;48.058;10.486;2022-09-09T06:03:46;5.95;;;2.00;;
38457;SDS011;24239;48.058;10.486;2022-09-09T06:06:13;4.95;;;1.70;;
38457;SDS011;24239;48.058;10.486;2022-09-09T06:08:42;3.35;;;2.17;;
38457;SDS011;24239;48.058;10.486;2022-09-09T06:11:13;3.42;;;2.20;;
38457;SDS011;24239;48.058;10.486;2022-09-09T06:13:41;5.43;;;2.07;;
38457;SDS011;24239;48.058;10.486;2022-09-09T06:16:08;3.42;;;1.98;;
38457;SDS011;24239;48.058;10.486;2022-09-09T06:18:36;3.67;;;1.90;;
38457;SDS011;24239;48.058;10.486;2022-09-09T06:21:04;4.50;;;1.90;;
38457;SDS011;24239;48.058;10.486;2022-09-09T06:23:32;3.45;;;2.40;;
38457;SDS011;24239;48.058;10.486;2022-09-09T06:26:09;3.03;;;2.22;;
38457;SDS011;24239;48.058;10.486;2022-09-09T06:28:38;2.90;;;2.03;;
38457;SDS011;24239;48.058;10.486;2022-09-09T06:31:05;3.10;;;2.00;;
38457;SDS011;24239;48.058;10.486;2022-09-09T06:33:33;5.35;;;2.28;;
38457;SDS011;24239;48.058;10.486;2022-09-09T06:36:01;4.88;;;2.13;;
38457;SDS011;24239;48.058;10.486;2022-09-09T06:38:29;3.85;;;1.80;;
38457;SDS011;24239;48.058;10.486;2022-09-09T06:40:55;7.72;;;2.20;;
38457;SDS011;24239;48.058;10.486;2022-09-09T06:43:23;3.40;;;1.90;;
38457;SDS011;24239;48.058;10.486;2022-09-09T06:48:43;3.83;;;1.92;;
38457;SDS011;24239;48.058;10.486;2022-09-09T06:53:43;4.38;;;2.08;;
38457;SDS011;24239;48.058;10.486;2022-09-09T06:58:40;6.97;;;2.10;;
38457;SDS011;24239;48.058;10.486;2022-09-09T07:01:12;4.97;;;1.90;;
38457;SDS011;24239;48.058;10.486;2022-09-09T07:03:40;2.10;;;1.50;;
38457;SDS011;24239;48.058;10.486;2022-09-09T07:06:08;4.45;;;1.90;;
38457;SDS011;24239;48.058;10.486;2022-09-09T07:08:39;6.85;;;2.08;;
38457;SDS011;24239;48.058;10.486;2022-09-09T07:11:07;5.15;;;1.83;;
38457;SDS011;24239;48.058;10.486;2022-09-09T07:13:34;4.03;;;1.73;;
38457;SDS011;24239;48.058;10.486;2022-09-09T07:16:04;5.78;;;1.88;;
38457;SDS011;24239;48.058;10.486;2022-09-09T07:18:31;4.43;;;1.50;;
38457;SDS011;24239;48.058;10.486;2022-09-09T07:20:59;5.05;;;2.28;;
38457;SDS011;24239;48.058;10.486;2022-09-09T07:23:27;7.10;;;2.20;;
38457;SDS011;24239;48.058;10.486;2022-09-09T07:25:56;4.90;;;2.00;;
38457;SDS011;24239;48.058;10.486;2022-09-09T07:28:25;2.88;;;1.40;;
38457;SDS011;24239;48.058;10.486;2022-09-09T07:30:53;8.27;;;1.50;;
38457;SDS011;24239;48.058;10.486;2022-09-09T07:33:24;2.67;;;1.60;;
38457;SDS011;24239;48.058;10.486;2022-09-09T07:35:50;3.75;;;1.50;;
38457;SDS011;24239;48.058;10.486;2022-09-09T07:38:17;6.20;;;1.45;;
38457;SDS011;24239;48.058;10.486;2022-09-09T07:40:47;2.97;;;1.50;;
38457;SDS011;24239;48.058;10.486;2022-09-09T07:43:13;3.28;;;1.83;;
38457;SDS011;24239;48.058;10.486;2022-09-09T07:45:42;2.15;;;1.40;;
38457;SDS011;24239;48.058;10.486;2022-09-09T07:48:08;3.22;;;1.23;;
38457;SDS011;24239;48.058;10.486;2022-09-09T07:50:37;7.00;;;1.83;;
38457;SDS011;24239;48.058;10.486;2022-09-09T07:53:02;2.67;;;1.70;;
38457;SDS011;24239;48.058;10.486;2022-09-09T07:55:30;5.53;;;1.45;;
38457;SDS011;24239;48.058;10.486;2022-09-09T07:57:56;3.60;;;1.40;;
38457;SDS011;24239;48.058;10.486;2022-09-09T08:00:22;3.67;;;1.65;;
38457;SDS011;24239;48.058;10.486;2022-09-09T08:02:49;1.77;;;1.23;;
38457;SDS011;24239;48.058;10.486;2022-09-09T08:05:17;4.15;;;1.63;;
38457;SDS011;24239;48.058;10.486;2022-09-09T08:07:45;4.10;;;1.57;;
38457;SDS011;24239;48.058;10.486;2022-09-09T08:10:12;6.90;;;1.70;;
38457;SDS011;24239;48.058;10.486;2022-09-09T08:12:39;4.35;;;1.40;;
38457;SDS011;24239;48.058;10.486;2022-09-09T08:15:05;5.20;;;1.42;;
38457;SDS011;24239;48.058;10.486;2022-09-09T08:17:32;3.58;;;1.30;;
38457;SDS011;24239;48.058;10.486;2022-09-09T08:19:58;3.30;;;1.48;;
38457;SDS011;24239;48.058;10.486;2022-09-09T08:22:28;3.45;;;1.50;;
38457;SDS011;24239;48.058;10.486;2022-09-09T08:24:54;3.50;;;1.05;;
38457;SDS011;24239;48.058;10.486;2022-09-09T08:27:20;3.65;;;1.33;;
38457;SDS011;24239;48.058;10.486;2022-09-09T08:29:45;2.25;;;1.08;;
38457;SDS011;24239;48.058;10.486;2022-09-09T08:32:14;3.63;;;1.65;;
38457;SDS011;24239;48.058;10.486;2022-09-09T08:34:41;3.85;;;1.23;;
38457;SDS011;24239;48.058;10.486;2022-09-09T08:37:07;2.80;;;1.25;;
38457;SDS011;24239;48.058;10.486;2022-09-09T08:39:33;2.05;;;1.20;;
38457;SDS011;24239;48.058;10.486;2022-09-09T08:52:37;2.92;;;1.33;;
38457;SDS011;24239;48.058;10.486;2022-09-09T09:11:03;2.65;;;1.15;;
38457;SDS011;24239;48.058;10.486;2022-09-09T09:13:43;3.28;;;1.45;;
38457;SDS011;24239;48.058;10.486;2022-09-09T09:16:23;3.90;;;1.40;;
38457;SDS011;24239;48.058;10.486;2022-09-09T09:18:57;3.42;;;1.50;;
38457;SDS011;24239;48.058;10.486;2022-09-09T09:21:36;2.90;;;1.40;;
38457;SDS011;24239;48.058;10.486;2022-09-09T09:27:00;3.78;;;1.40;;
38457;SDS011;24239;48.058;10.486;2022-09-09T09:29:40;2.67;;;1.25;;
38457;SDS011;24239;48.058;10.486;2022-09-09T09:32:10;4.30;;;1.42;;
38457;SDS011;24239;48.058;10.486;2022-09-09T09:34:39;5.07;;;1.70;;
38457;SDS011;24239;48.058;10.486;2022-09-09T09:37:17;2.88;;;1.20;;
38457;SDS011;24239;48.058;10.486;2022-09-09T09:40:07;2.63;;;1.30;;
38457;SDS011;24239;48.058;10.486;2022-09-09T09:42:37;6.05;;;1.50;;
38457;SDS011;24239;48.058;10.486;2022-09-09T09:48:06;3.72;;;1.50;;
38457;SDS011;24239;48.058;10.486;2022-09-09T09:50:35;4.97;;;1.95;;
38457;SDS011;24239;48.058;10.486;2022-09-09T09:53:19;5.40;;;1.60;;
38457;SDS011;24239;48.058;10.486;2022-09-09T09:58:26;5.63;;;1.80;;
38457;SDS011;24239;48.058;10.486;2022-09-09T10:03:29;3.95;;;1.42;;
38457;SDS011;24239;48.058;10.486;2022-09-09T10:08:23;4.43;;;2.05;;
38457;SDS011;24239;48.058;10.486;2022-09-09T10:11:34;6.75;;;1.73;;
38457;SDS011;24239;48.058;10.486;2022-09-09T10:19:19;5.65;;;1.50;;
38457;SDS011;24239;48.058;10.486;2022-09-09T10:32:48;5.13;;;1.67;;
38457;SDS011;24239;48.058;10.486;2022-09-09T10:40:34;6.53;;;1.70;;
38457;SDS011;24239;48.058;10.486;2022-09-09T10:46:10;5.55;;;1.35;;
38457;SDS011;24239;48.058;10.486;2022-09-09T10:57:11;3.35;;;1.67;;
38457;SDS011;24239;48.058;10.486;2022-09-09T10:59:45;4.05;;;1.33;;
38457;SDS011;24239;48.058;10.486;2022-09-09T11:07:41;4.50;;;1.50;;
38457;SDS011;24239;48.058;10.486;2022-09-09T11:10:17;5.05;;;1.30;;
38457;SDS011;24239;48.058;10.486;2022-09-09T11:12:51;4.85;;;1.42;;
38457;SDS011;24239;48.058;10.486;2022-09-09T11:18:29;6.22;;;1.52;;
38457;SDS011;24239;48.058;10.486;2022-09-09T11:21:02;10.57;;;2.03;;
38457;SDS011;24239;48.058;10.486;2022-09-09T11:23:46;7.10;;;1.48;;
38457;SDS011;24239;48.058;10.486;2022-09-09T11:26:21;5.80;;;1.50;;
38457;SDS011;24239;48.058;10.486;2022-09-09T11:36:50;3.00;;;1.27;;
38457;SDS011;24239;48.058;10.486;2022-09-09T11:44:45;5.72;;;1.40;;
38457;SDS011;24239;48.058;10.486;2022-09-09T11:49:46;7.55;;;1.40;;
38457;SDS011;24239;48.058;10.486;2022-09-09T11:55:09;4.55;;;1.50;;
38457;SDS011;24239;48.058;10.486;2022-09-09T11:57:37;5.00;;;1.80;;
38457;SDS011;24239;48.058;10.486;2022-09-09T12:00:04;5.65;;;1.33;;
38457;SDS011;24239;48.058;10.486;2022-09-09T12:02:30;3.53;;;1.38;;
38457;SDS011;24239;48.058;10.486;2022-09-09T12:05:07;4.68;;;1.38;;
38457;SDS011;24239;48.058;10.486;2022-09-09T12:07:40;6.70;;;1.30;;
38457;SDS011;24239;48.058;10.486;2022-09-09T12:10:22;7.18;;;1.92;;
38457;SDS011;24239;48.058;10.486;2022-09-09T12:12:52;4.82;;;1.30;;
38457;SDS011;24239;48.058;10.486;2022-09-09T12:15:25;3.50;;;1.30;;
38457;SDS011;24239;48.058;10.486;2022-09-09T12:17:55;4.55;;;1.50;;
38457;SDS011;24239;48.058;10.486;2022-09-09T12:20:37;6.43;;;1.65;;
38457;SDS011;24239;48.058;10.486;2022-09-09T12:26:00;5.90;;;1.70;;
38457;SDS011;24239;48.058;10.486;2022-09-09T12:28:44;3.72;;;1.17;;
38457;SDS011;24239;48.058;10.486;2022-09-09T12:51:50;4.68;;;1.40;;
38457;SDS011;24239;48.058;10.486;2022-09-09T12:54:16;3.67;;;1.55;;
38457;SDS011;24239;48.058;10.486;2022-09-09T12:56:44;4.50;;;1.40;;
38457;SDS011;24239;48.058;10.486;2022-09-09T12:59:25;2.35;;;1.25;;
38457;SDS011;24239;48.058;10.486;2022-09-09T13:01:58;3.97;;;1.42;;
38457;SDS011;24239;48.058;10.486;2022-09-09T13:04:27;3.55;;;1.17;;
38457;SDS011;24239;48.058;10.486;2022-09-09T13:06:53;6.95;;;1.90;;
38457;SDS011;24239;48.058;10.486;2022-09-09T13:09:20;6.00;;;1.48;;
38457;SDS011;24239;48.058;10.486;2022-09-09T13:11:50;6.43;;;1.77;;
38457;SDS011;24239;48.058;10.486;2022-09-09T13:14:24;2.17;;;1.20;;
38457;SDS011;24239;48.058;10.486;2022-09-09T13:17:01;2.88;;;1.40;;
38457;SDS011;24239;48.058;10.486;2022-09-09T13:19:32;4.47;;;1.70;;
38457;SDS011;24239;48.058;10.486;2022-09-09T13:22:14;4.20;;;1.30;;
38457;SDS011;24239;48.058;10.486;2022-09-09T13:25:00;8.88;;;1.67;;
38457;SDS011;24239;48.058;10.486;2022-09-09T13:27:35;4.63;;;1.23;;
38457;SDS011;24239;48.058;10.486;2022-09-09T13:30:26;2.75;;;1.20;;
38457;SDS011;24239;48.058;10.486;2022-09-09T13:38:19;3.67;;;1.40;;
38457;SDS011;24239;48.058;10.486;2022-09-09T13:43:23;1.52;;;1.05;;
38457;SDS011;24239;48.058;10.486;2022-09-09T13:45:54;2.35;;;1.20;;
38457;SDS011;24239;48.058;10.486;2022-09-09T13:48:24;4.05;;;1.38;;
38457;SDS011;24239;48.058;10.486;2022-09-09T13:50:58;3.10;;;1.50;;
38457;SDS011;24239;48.058;10.486;2022-09-09T13:53:26;4.15;;;1.45;;
38457;SDS011;24239;48.058;10.486;2022-09-09T13:55:52;2.08;;;1.10;;
38457;SDS011;24239;48.058;10.486;2022-09-09T13:58:18;3.38;;;1.27;;
38457;SDS011;24239;48.058;10.486;2022-09-09T14:00:44;5.85;;;1.30;;
38457;SDS011;24239;48.058;10.486;2022-09-09T14:03:11;2.17;;;1.20;;
38457;SDS011;24239;48.058;10.486;2022-09-09T14:05:37;3.83;;;1.30;;
38457;SDS011;24239;48.058;10.486;2022-09-09T14:08:06;3.80;;;1.25;;
38457;SDS011;24239;48.058;10.486;2022-09-09T14:10:33;1.95;;;1.00;;
38457;SDS011;24239;48.058;10.486;2022-09-09T14:13:02;2.97;;;1.17;;
38457;SDS011;24239;48.058;10.486;2022-09-09T14:15:28;2.97;;;1.27;;
38457;SDS011;24239;48.058;10.486;2022-09-09T14:17:54;3.85;;;1.20;;
38457;SDS011;24239;48.058;10.486;2022-09-09T14:20:20;2.28;;;1.35;;
38457;SDS011;24239;48.058;10.486;2022-09-09T14:22:46;4.00;;;1.25;;
38457;SDS011;24239;48.058;10.486;2022-09-09T14:25:12;5.53;;;1.17;;
38457;SDS011;24239;48.058;10.486;2022-09-09T14:27:38;2.25;;;1.17;;
38457;SDS011;24239;48.058;10.486;2022-09-09T14:30:05;4.60;;;1.40;;
38457;SDS011;24239;48.058;10.486;2022-09-09T14:32:32;2.88;;;1.10;;
38457;SDS011;24239;48.058;10.486;2022-09-09T14:34:58;3.97;;;1.10;;
38457;SDS011;24239;48.058;10.486;2022-09-09T14:37:24;2.08;;;1.00;;
38457;SDS011;24239;48.058;10.486;2022-09-09T14:39:50;3.83;;;1.20;;
38457;SDS011;24239;48.058;10.486;2022-09-09T14:42:16;2.50;;;1.10;;
38457;SDS011;24239;48.058;10.486;2022-09-09T14:44:45;5.43;;;1.30;;
38457;SDS011;24239;48.058;10.486;2022-09-09T14:47:11;3.90;;;1.00;;
38457;SDS011;24239;48.058;10.486;2022-09-09T14:49:37;1.75;;;0.75;;
38457;SDS011;24239;48.058;10.486;2022-09-09T14:52:03;2.05;;;0.90;;
38457;SDS011;24239;48.058;10.486;2022-09-09T14:54:30;1.90;;;0.90;;
38457;SDS011;24239;48.058;10.486;2022-09-09T14:56:57;3.97;;;1.08;;
38457;SDS011;24239;48.058;10.486;2022-09-09T14:59:23;3.08;;;0.95;;
38457;SDS011;24239;48.058;10.486;2022-09-09T15:01:49;3.53;;;1.13;;
38457;SDS011;24239;48.058;10.486;2022-09-09T15:04:15;1.42;;;0.82;;
38457;SDS011;24239;48.058;10.486;2022-09-09T15:06:42;2.50;;;1.20;;
38457;SDS011;24239;48.058;10.486;2022-09-09T15:09:12;4.72;;;1.10;;
38457;SDS011;24239;48.058;10.486;2022-09-09T15:11:40;5.55;;;1.75;;
38457;SDS011;24239;48.058;10.486;2022-09-09T15:14:07;3.28;;;1.08;;
38457;SDS011;24239;48.058;10.486;2022-09-09T15:16:34;5.35;;;1.35;;
38457;SDS011;24239;48.058;10.486;2022-09-09T15:19:00;8.90;;;1.60;;
38457;SDS011;24239;48.058;10.486;2022-09-09T15:21:29;4.30;;;1.45;;
38457;SDS011;24239;48.058;10.486;2022-09-09T15:23:56;2.13;;;0.98;;
38457;SDS011;24239;48.058;10.486;2022-09-09T15:26:23;3.33;;;1.00;;
38457;SDS011;24239;48.058;10.486;2022-09-09T15:28:49;3.25;;;1.23;;
38457;SDS011;24239;48.058;10.486;2022-09-09T15:33:49;4.05;;;1.00;;
38457;SDS011;24239;48.058;10.486;2022-09-09T15:36:19;3.20;;;1.02;;
38457;SDS011;24239;48.058;10.486;2022-09-09T15:38:45;2.65;;;1.23;;
38457;SDS011;24239;48.058;10.486;2022-09-09T15:41:12;2.33;;;1.20;;
38457;SDS011;24239;48.058;10.486;2022-09-09T15:43:39;5.30;;;1.30;;
38457;SDS011;24239;48.058;10.486;2022-09-09T15:48:49;3.92;;;1.10;;
38457;SDS011;24239;48.058;10.486;2022-09-09T15:51:18;2.28;;;1.58;;
38457;SDS011;24239;48.058;10.486;2022-09-09T15:53:44;4.20;;;1.40;;
38457;SDS011;24239;48.058;10.486;2022-09-09T15:56:10;2.03;;;1.15;;
38457;SDS011;24239;48.058;10.486;2022-09-09T15:58:36;3.88;;;1.45;;
38457;SDS011;24239;48.058;10.486;2022-09-09T16:01:06;3.75;;;1.00;;
38457;SDS011;24239;48.058;10.486;2022-09-09T16:03:36;2.55;;;1.30;;
38457;SDS011;24239;48.058;10.486;2022-09-09T16:06:04;3.10;;;1.02;;
38457;SDS011;24239;48.058;10.486;2022-09-09T16:08:34;4.68;;;1.10;;
38457;SDS011;24239;48.058;10.486;2022-09-09T16:11:08;3.20;;;1.30;;
38457;SDS011;24239;48.058;10.486;2022-09-09T16:13:42;3.17;;;1.20;;
38457;SDS011;24239;48.058;10.486;2022-09-09T16:16:09;3.88;;;1.23;;
38457;SDS011;24239;48.058;10.486;2022-09-09T16:18:38;2.42;;;1.10;;
38457;SDS011;24239;48.058;10.486;2022-09-09T16:21:06;2.22;;;1.10;;
38457;SDS011;24239;48.058;10.486;2022-09-09T16:23:38;2.17;;;1.00;;
38457;SDS011;24239;48.058;10.486;2022-09-09T16:26:08;2.80;;;1.23;;
38457;SDS011;24239;48.058;10.486;2022-09-09T16:28:36;3.72;;;1.17;;
38457;SDS011;24239;48.058;10.486;2022-09-09T16:31:08;2.90;;;0.85;;
38457;SDS011;24239;48.058;10.486;2022-09-09T16:33:36;3.60;;;1.13;;
38457;SDS011;24239;48.058;10.486;2022-09-09T16:36:09;2.05;;;0.95;;
38457;SDS011;24239;48.058;10.486;2022-09-09T16:38:39;2.55;;;1.17;;
38457;SDS011;24239;48.058;10.486;2022-09-09T16:41:06;4.07;;;1.60;;
38457;SDS011;24239;48.058;10.486;2022-09-09T16:43:34;4.30;;;1.00;;
38457;SDS011;24239;48.058;10.486;2022-09-09T16:46:03;1.30;;;1.00;;
38457;SDS011;24239;48.058;10.486;2022-09-09T16:48:41;5.03;;;1.10;;
38457;SDS011;24239;48.058;10.486;2022-09-09T16:51:09;1.92;;;1.10;;
38457;SDS011;24239;48.058;10.486;2022-09-09T16:53:39;1.83;;;1.10;;
38457;SDS011;24239;48.058;10.486;2022-09-09T16:56:08;3.30;;;1.13;;
38457;SDS011;24239;48.058;10.486;2022-09-09T16:58:34;3.35;;;1.13;;
38457;SDS011;24239;48.058;10.486;2022-09-09T17:01:03;3.85;;;1.27;;
38457;SDS011;24239;48.058;10.486;2022-09-09T17:03:30;1.85;;;1.27;;
38457;SDS011;24239;48.058;10.486;2022-09-09T17:05:59;5.25;;;1.48;;
38457;SDS011;24239;48.058;10.486;2022-09-09T17:08:28;3.53;;;1.30;;
38457;SDS011;24239;48.058;10.486;2022-09-09T17:10:55;3.40;;;1.10;;
38457;SDS011;24239;48.058;10.486;2022-09-09T17:13:21;2.40;;;1.20;;
38457;SDS011;24239;48.058;10.486;2022-09-09T17:15:47;3.25;;;1.50;;
38457;SDS011;24239;48.058;10.486;2022-09-09T17:18:13;2.53;;;1.20;;
38457;SDS011;24239;48.058;10.486;2022-09-09T17:20:39;2.63;;;1.50;;
38457;SDS011;24239;48.058;10.486;2022-09-09T17:23:06;2.13;;;1.33;;
38457;SDS011;24239;48.058;10.486;2022-09-09T17:25:36;3.53;;;1.55;;
38457;SDS011;24239;48.058;10.486;2022-09-09T17:28:03;5.05;;;1.70;;
38457;SDS011;24239;48.058;10.486;2022-09-09T17:30:38;5.47;;;1.70;;
38457;SDS011;24239;48.058;10.486;2022-09-09T17:33:06;2.15;;;1.10;;
38457;SDS011;24239;48.058;10.486;2022-09-09T17:35:33;2.92;;;1.70;;
38457;SDS011;24239;48.058;10.486;2022-09-09T17:37:59;2.42;;;1.42;;
38457;SDS011;24239;48.058;10.486;2022-09-09T17:40:25;3.45;;;1.58;;
38457;SDS011;24239;48.058;10.486;2022-09-09T17:42:52;2.75;;;1.60;;
38457;SDS011;24239;48.058;10.486;2022-09-09T17:45:17;2.30;;;1.48;;
38457;SDS011;24239;48.058;10.486;2022-09-09T17:47:44;4.13;;;2.10;;
38457;SDS011;24239;48.058;10.486;2022-09-09T17:50:13;5.30;;;1.90;;
38457;SDS011;24239;48.058;10.486;2022-09-09T17:52:39;1.70;;;1.60;;
38457;SDS011;24239;48.058;10.486;2022-09-09T17:55:05;4.15;;;1.52;;
38457;SDS011;24239;48.058;10.486;2022-09-09T17:57:34;9.30;;;2.30;;
38457;SDS011;24239;48.058;10.486;2022-09-09T18:00:00;2.72;;;1.55;;
38457;SDS011;24239;48.058;10.486;2022-09-09T18:02:26;3.55;;;2.00;;
38457;SDS011;24239;48.058;10.486;2022-09-09T18:04:52;3.25;;;1.40;;
38457;SDS011;24239;48.058;10.486;2022-09-09T18:07:17;2.53;;;1.50;;
38457;SDS011;24239;48.058;10.486;2022-09-09T18:09:44;4.72;;;2.15;;
38457;SDS011;24239;48.058;10.486;2022-09-09T18:12:10;2.75;;;1.50;;
38457;SDS011;24239;48.058;10.486;2022-09-09T18:14:36;4.05;;;1.58;;
38457;SDS011;24239;48.058;10.486;2022-09-09T18:17:02;4.53;;;2.03;;
38457;SDS011;24239;48.058;10.486;2022-09-09T18:19:29;7.53;;;1.75;;
38457;SDS011;24239;48.058;10.486;2022-09-09T18:21:56;4.68;;;1.83;;